Time;durP1;ratioP1;P1;durP2;ratioP2;P2;SDS_P1;SDS_P2;PMS_P1;PMS_P2;Temp;Humidity;BMP_temperature;BMP_pressure;BME280_temperature;BME280_humidity;BME280_pressure;Samples;Min_cycle;Max_cycle;Signal;HPM_P1;HPM_P2
2022/04/06 00:02:38;;;;;;;;;;;;;;;21.69;45.35;99738.28;20702208;27;97055;-78
2022/04/06 00:12:38;;;;;;;;;;;;;;;21.70;45.32;99737.31;20709506;27;97477;-77
2022/04/06 00:22:40;;;;;;;;;;;;;;;21.66;45.54;99749.09;20701774;27;97599;-78
2022/04/06 00:32:40;;;;;;;;;;;;;;;21.66;45.64;99754.38;20712178;27;98218;-76
2022/04/06 00:42:41;;;;;;;;;;;;;;;21.65;45.33;99749.25;20721956;27;98680;-78
2022/04/06 00:52:41;;;;;;;;;;;;;;;21.64;45.44;99753.69;20714523;27;99782;-78
2022/04/06 01:02:42;;;;;;;;;;;;;;;21.62;45.37;99754.78;20713259;27;98313;-78
2022/04/06 01:12:45;;;;;;;;;;;;;;;21.61;45.53;99753.13;20711043;27;97516;-78
2022/04/06 01:22:46;;;;;;;;;;;;;;;21.61;45.42;99739.97;20715452;27;98788;-78
2022/04/06 01:32:46;;;;;;;;;;;;;;;21.56;45.26;99742.97;20702804;27;98206;-78
2022/04/06 01:42:47;;;;;;;;;;;;;;;21.55;45.59;99743.94;20714071;27;101700;-78
2022/04/06 01:52:48;;;;;;;;;;;;;;;21.53;45.45;99736.16;20732302;27;96872;-79
2022/04/06 02:02:52;;;;;;;;;;;;;;;21.54;45.52;99737.81;20716382;27;106040;-79
2022/04/06 02:12:54;;;;;;;;;;;;;;;21.48;45.71;99738.34;20697310;27;97186;-76
2022/04/06 02:22:54;;;;;;;;;;;;;;;21.61;46.87;99740.78;20715065;27;98800;-73
2022/04/06 02:32:55;;;;;;;;;;;;;;;21.54;44.52;99731.72;20698494;27;100337;-76
2022/04/06 02:42:55;;;;;;;;;;;;;;;21.46;45.05;99719.25;20718241;27;97027;-76
2022/04/06 02:52:56;;;;;;;;;;;;;;;21.43;45.56;99733.53;20720337;27;96920;-76
2022/04/06 03:02:56;;;;;;;;;;;;;;;21.44;45.66;99736.97;20704560;27;97316;-76
2022/04/06 03:12:57;;;;;;;;;;;;;;;21.44;45.49;99750.16;20713956;27;98056;-76
2022/04/06 03:22:57;;;;;;;;;;;;;;;21.41;45.53;99747.78;20716541;27;97582;-75
2022/04/06 03:32:58;;;;;;;;;;;;;;;21.40;45.87;99751.41;20711894;27;97396;-76
2022/04/06 03:42:58;;;;;;;;;;;;;;;21.36;45.62;99748.19;20709689;27;106275;-76
2022/04/06 03:52:59;;;;;;;;;;;;;;;21.36;45.76;99750.00;20702331;27;99905;-75
2022/04/06 04:02:59;;;;;;;;;;;;;;;21.32;46.21;99754.69;20697512;27;96859;-75
2022/04/06 04:13:00;;;;;;;;;;;;;;;21.48;46.73;99754.16;20700716;27;98349;-74
2022/04/06 04:23:01;;;;;;;;;;;;;;;21.62;46.07;99755.63;20688603;27;101070;-77
2022/04/06 04:33:01;;;;;;;;;;;;;;;21.69;46.32;99763.78;20699348;27;97140;-78
2022/04/06 04:43:03;;;;;;;;;;;;;;;21.77;46.65;99765.75;20725392;27;97319;-78
2022/04/06 04:53:05;;;;;;;;;;;;;;;21.77;45.92;99777.13;20734134;27;97627;-78
2022/04/06 05:03:06;;;;;;;;;;;;;;;21.78;45.13;99773.53;20727069;27;98552;-79
2022/04/06 05:13:06;;;;;;;;;;;;;;;21.87;46.14;99790.31;20699946;27;99586;-78
2022/04/06 05:23:07;;;;;;;;;;;;;;;21.83;45.03;99800.28;20726859;27;97175;-77
2022/04/06 05:33:07;;;;;;;;;;;;;;;21.86;45.70;99800.03;20736162;27;97001;-76
2022/04/06 05:43:08;;;;;;;;;;;;;;;21.86;45.97;99807.09;20721942;27;97243;-77
2022/04/06 05:53:08;;;;;;;;;;;;;;;21.91;45.70;99824.16;20733001;27;100112;-76
2022/04/06 06:03:09;;;;;;;;;;;;;;;21.98;45.86;99820.97;20734037;27;97305;-77
2022/04/06 06:13:09;;;;;;;;;;;;;;;22.00;45.56;99826.94;20727811;27;96845;-77
2022/04/06 06:23:10;;;;;;;;;;;;;;;22.04;45.83;99823.06;20726843;27;98282;-78
2022/04/06 06:33:10;;;;;;;;;;;;;;;22.15;45.84;99830.81;20746511;27;98895;-79
2022/04/06 06:43:11;;;;;;;;;;;;;;;22.14;46.04;99829.19;20730550;27;96950;-77
2022/04/06 06:53:11;;;;;;;;;;;;;;;22.17;45.53;99830.69;20735057;27;97671;-77
2022/04/06 07:03:12;;;;;;;;;;;;;;;22.18;45.73;99821.78;20729839;27;97438;-78
2022/04/06 07:13:14;;;;;;;;;;;;;;;22.16;45.43;99821.94;20729389;27;99699;-77
2022/04/06 07:23:14;;;;;;;;;;;;;;;22.23;45.51;99838.06;20734046;27;96913;-77
2022/04/06 07:33:15;;;;;;;;;;;;;;;22.25;45.56;99841.38;20721990;27;96829;-78
2022/04/06 07:43:15;;;;;;;;;;;;;;;22.25;45.18;99836.09;20729624;27;97682;-77
2022/04/06 07:53:17;;;;;;;;;;;;;;;22.27;45.25;99835.97;20708997;27;98649;-79
2022/04/06 08:03:17;;;;;;;;;;;;;;;22.26;45.39;99840.41;20713626;27;97011;-78
2022/04/06 08:13:18;;;;;;;;;;;;;;;22.28;44.93;99841.09;20723475;27;97847;-79
2022/04/06 08:23:20;;;;;;;;;;;;;;;22.30;45.18;99840.94;20705657;27;97334;-80
2022/04/06 08:33:21;;;;;;;;;;;;;;;22.31;44.71;99838.16;20729820;27;97686;-80
2022/04/06 08:43:22;;;;;;;;;;;;;;;22.32;44.72;99834.56;20711399;27;97273;-77
2022/04/06 08:53:23;;;;;;;;;;;;;;;22.29;45.27;99836.66;20729896;27;97632;-80
2022/04/06 09:03:24;;;;;;;;;;;;;;;22.28;45.09;99833.19;20745689;27;97731;-78
2022/04/06 09:13:24;;;;;;;;;;;;;;;22.28;45.66;99832.38;20736073;27;97368;-77
2022/04/06 09:23:28;;;;;;;;;;;;;;;22.27;45.20;99822.78;20724695;27;99816;-78
2022/04/06 09:33:29;;;;;;;;;;;;;;;22.25;45.84;99808.91;20735863;27;97133;-77
2022/04/06 09:43:31;;;;;;;;;;;;;;;22.36;45.32;99785.84;20720878;27;97242;-76
2022/04/06 09:53:34;;;;;;;;;;;;;;;22.29;44.05;99774.19;20719303;27;97148;-76
2022/04/06 10:03:37;;;;;;;;;;;;;;;22.29;43.60;99763.66;20696381;27;97167;-77
2022/04/06 10:13:42;;;;;;;;;;;;;;;22.34;43.14;99752.69;20707677;27;97768;-77
2022/04/06 10:24:01;;;;;;;;;;;;;;;22.41;42.92;99745.91;20712862;27;96941;-77
2022/04/06 10:34:22;;;;;;;;;;;;;;;22.50;43.36;99736.28;20700387;27;101576;-77
2022/04/06 10:44:41;;;;;;;;;;;;;;;22.57;43.18;99720.69;20701561;27;99554;-77
2022/04/06 10:54:41;;;;;;;;;;;;;;;22.52;40.33;99718.50;20717759;27;101299;-77
2022/04/06 11:04:42;;;;;;;;;;;;;;;22.54;38.78;99708.63;20725830;27;98657;-77
2022/04/06 11:14:44;;;;;;;;;;;;;;;22.59;36.59;99689.72;20725469;27;97124;-76
2022/04/06 11:24:44;;;;;;;;;;;;;;;22.59;34.93;99674.72;20728355;27;97475;-76
2022/04/06 11:34:45;;;;;;;;;;;;;;;22.71;35.05;99663.00;20724409;27;97028;-76
2022/04/06 11:44:46;;;;;;;;;;;;;;;22.85;35.16;99645.00;20697205;27;97008;-76
2022/04/06 11:54:53;;;;;;;;;;;;;;;23.02;36.03;99638.94;20692774;27;97025;-77
2022/04/06 12:05:04;;;;;;;;;;;;;;;23.13;36.11;99605.34;20699282;27;97501;-77
2022/04/06 12:15:05;;;;;;;;;;;;;;;23.20;37.52;99569.47;20695873;27;98210;-78
2022/04/06 12:25:06;;;;;;;;;;;;;;;23.31;36.61;99560.50;20736327;27;96819;-79
2022/04/06 12:35:19;;;;;;;;;;;;;;;23.36;35.31;99545.00;20733502;27;96876;-79
2022/04/06 12:45:26;;;;;;;;;;;;;;;23.48;34.57;99524.44;20727155;27;96935;-77
2022/04/06 12:55:27;;;;;;;;;;;;;;;23.55;35.60;99516.75;20698809;27;98570;-78
2022/04/06 13:05:27;;;;;;;;;;;;;;;23.62;35.46;99486.88;20697561;27;97088;-77
2022/04/06 13:15:30;;;;;;;;;;;;;;;23.62;36.76;99476.31;20700854;27;98110;-77
2022/04/06 13:25:31;;;;;;;;;;;;;;;23.63;35.58;99459.47;20699008;27;97479;-77
2022/04/06 13:35:32;;;;;;;;;;;;;;;23.70;35.64;99448.28;20692351;27;99476;-73
2022/04/06 13:45:33;;;;;;;;;;;;;;;23.75;35.83;99427.47;20683668;27;97621;-74
2022/04/06 13:55:33;;;;;;;;;;;;;;;23.77;34.64;99415.75;20688593;27;99084;-74
2022/04/06 14:05:34;;;;;;;;;;;;;;;23.74;34.52;99402.03;20731152;27;97530;-74
2022/04/06 14:15:35;;;;;;;;;;;;;;;23.74;33.95;99376.44;20718819;27;97512;-74
2022/04/06 14:25:36;;;;;;;;;;;;;;;23.77;32.83;99354.97;20732133;27;98046;-75
2022/04/06 14:35:36;;;;;;;;;;;;;;;23.79;34.45;99345.06;20733751;27;98020;-74
2022/04/06 14:45:37;;;;;;;;;;;;;;;23.77;33.93;99325.88;20723887;27;97801;-75
2022/04/06 14:55:38;;;;;;;;;;;;;;;23.73;33.58;99303.41;20707050;27;101245;-72
2022/04/06 15:05:39;;;;;;;;;;;;;;;23.70;33.75;99294.97;20725674;27;97312;-74
2022/04/06 15:15:39;;;;;;;;;;;;;;;23.71;32.19;99281.59;20728569;27;96887;-73
2022/04/06 15:25:44;;;;;;;;;;;;;;;23.67;32.74;99267.88;20703130;27;98053;-75
2022/04/06 15:46:04;;;;;;;;;;;;;;;23.63;30.94;99228.72;20690040;27;96969;-74
2022/04/06 15:56:05;;;;;;;;;;;;;;;23.70;31.07;99220.97;20689313;27;97230;-74
2022/04/06 16:06:05;;;;;;;;;;;;;;;23.87;31.65;99217.34;20690083;27;99420;-75
2022/04/06 16:16:05;;;;;;;;;;;;;;;24.03;30.44;99198.03;20701788;27;97075;-73
2022/04/06 16:26:07;;;;;;;;;;;;;;;24.05;29.84;99188.13;20690969;27;97097;-75
2022/04/06 16:36:09;;;;;;;;;;;;;;;24.04;29.28;99181.19;20687302;27;100749;-74
2022/04/06 16:46:09;;;;;;;;;;;;;;;23.87;30.40;99169.75;20702648;27;98145;-74
2022/04/06 16:56:10;;;;;;;;;;;;;;;23.73;30.03;99165.97;20665552;27;99550;-73
2022/04/06 17:06:10;;;;;;;;;;;;;;;23.60;30.09;99145.31;20708869;27;97490;-76
2022/04/06 17:16:10;;;;;;;;;;;;;;;23.52;30.93;99155.88;20706071;27;102349;-75
2022/04/06 17:26:12;;;;;;;;;;;;;;;23.42;30.68;99139.38;20725552;27;96682;-75
2022/04/06 17:36:12;;;;;;;;;;;;;;;23.36;30.90;99140.03;20716276;27;97777;-74
2022/04/06 17:46:13;;;;;;;;;;;;;;;23.30;31.04;99141.50;20723144;27;97637;-73
2022/04/06 17:56:14;;;;;;;;;;;;;;;23.17;30.86;99142.81;20733555;27;102752;-73
2022/04/06 18:06:16;;;;;;;;;;;;;;;23.10;30.84;99144.41;20724472;27;97052;-73
2022/04/06 18:16:18;;;;;;;;;;;;;;;23.05;31.37;99140.63;20704061;27;97683;-76
2022/04/06 18:26:20;;;;;;;;;;;;;;;23.02;32.08;99145.22;20705936;27;99662;-77
2022/04/06 18:36:20;;;;;;;;;;;;;;;23.00;31.92;99146.38;20714383;27;97034;-77
2022/04/06 18:46:21;;;;;;;;;;;;;;;22.96;32.37;99142.38;20717070;27;97225;-75
2022/04/06 18:56:22;;;;;;;;;;;;;;;22.83;33.42;99137.56;20701913;27;100084;-74
2022/04/06 19:06:22;;;;;;;;;;;;;;;22.85;33.97;99146.13;20699866;27;102069;-74
2022/04/06 19:16:23;;;;;;;;;;;;;;;22.85;34.20;99131.16;20689110;27;97177;-74
2022/04/06 19:26:27;;;;;;;;;;;;;;;22.84;34.35;99133.97;20726430;27;97623;-74
2022/04/06 19:36:30;;;;;;;;;;;;;;;22.83;34.73;99117.28;20725509;27;97092;-74
2022/04/06 19:46:31;;;;;;;;;;;;;;;22.84;34.96;99110.19;20718805;27;96888;-74
2022/04/06 19:56:32;;;;;;;;;;;;;;;22.82;35.21;99099.78;20720122;27;97191;-73
2022/04/06 20:06:33;;;;;;;;;;;;;;;22.81;35.76;99092.88;20718823;27;97085;-74
2022/04/06 20:16:34;;;;;;;;;;;;;;;22.81;35.92;99076.19;20720445;27;97190;-75
2022/04/06 20:26:35;;;;;;;;;;;;;;;22.80;36.12;99077.19;20719530;27;96878;-73
2022/04/06 20:36:37;;;;;;;;;;;;;;;22.80;36.75;99071.91;20705312;27;97248;-73
2022/04/06 20:46:37;;;;;;;;;;;;;;;22.77;37.18;99062.50;20724140;27;100937;-74
2022/04/06 20:56:38;;;;;;;;;;;;;;;22.77;37.60;99062.50;20724446;27;97097;-74
2022/04/06 21:06:38;;;;;;;;;;;;;;;22.78;37.55;99050.16;20721650;27;97446;-74
2022/04/06 21:16:39;;;;;;;;;;;;;;;22.77;37.56;99043.22;20721067;27;97910;-72
2022/04/06 21:26:40;;;;;;;;;;;;;;;22.78;38.01;99039.59;20727906;27;97797;-73
2022/04/06 21:36:41;;;;;;;;;;;;;;;22.77;38.05;99027.38;20718905;27;96836;-73
2022/04/06 21:46:41;;;;;;;;;;;;;;;22.74;38.23;99025.06;20724859;27;97443;-73
2022/04/06 21:56:42;;;;;;;;;;;;;;;22.74;38.29;99019.78;20720431;27;96934;-73
2022/04/06 22:06:43;;;;;;;;;;;;;;;22.69;38.46;99017.63;20714088;27;97510;-74
2022/04/06 22:16:45;;;;;;;;;;;;;;;22.64;38.71;98998.81;20714767;27;97170;-74
2022/04/06 22:26:46;;;;;;;;;;;;;;;22.63;38.73;98990.09;20717781;27;98312;-74
2022/04/06 22:36:46;;;;;;;;;;;;;;;22.65;38.85;98982.00;20718293;27;98747;-74
2022/04/06 22:46:47;;;;;;;;;;;;;;;22.62;38.77;98969.13;20719214;27;96905;-74
2022/04/06 22:56:47;;;;;;;;;;;;;;;22.62;39.08;98961.22;20713712;27;97883;-74
2022/04/06 23:06:48;;;;;;;;;;;;;;;22.61;39.28;98955.13;20713416;27;98147;-74
2022/04/06 23:16:48;;;;;;;;;;;;;;;22.61;39.53;98936.66;20723395;27;101158;-74
2022/04/06 23:26:51;;;;;;;;;;;;;;;22.60;39.71;98918.38;20719892;27;96836;-75
2022/04/06 23:36:52;;;;;;;;;;;;;;;22.58;39.71;98915.06;20708974;27;96818;-73
2022/04/06 23:46:53;;;;;;;;;;;;;;;22.59;39.86;98893.78;20707346;27;100864;-74
2022/04/06 23:56:55;;;;;;;;;;;;;;;22.56;39.96;98878.28;20709255;27;97189;-74
